Terminal Aerodrome Forecast
Issued by NWS Bismarck, ND

Home | Current Version | Previous Version | Text Only | Print | Product List | Glossary Off
Versions: 1 2 3 4 5 6 7 8 9 10 11 12 13 14 15 16 17 18 19

196
FTUS43 KBIS 212329
TAFISN
TAF
KISN 212329Z 2200/2224 27006KT P6SM FEW012 SCT150
     FM220100 28006KT 6SM BR OVC008
     FM221900 27009KT P6SM OVC010
     FM222300 27007KT P6SM BKN008=

USA.gov is the U.S. government's official web portal to all federal, state and local government web resources and services.